Time;durP1;ratioP1;P1;durP2;ratioP2;P2;SDS_P1;SDS_P2;PMS_P1;PMS_P2;Temp;Humidity;BMP_temperature;BMP_pressure;BME280_temperature;BME280_humidity;BME280_pressure;Samples;Min_cycle;Max_cycle;Signal;HPM_P1;HPM_P2
2022/09/14 00:01:17;;;;;;;16.23;8.73;;;;;;;10.47;91.43;94097.23;1623158;88;21086;-58
2022/09/14 00:03:44;;;;;;;13.60;8.95;;;;;;;10.47;91.24;94091.73;1624617;87;21070;-57
2022/09/14 00:06:13;;;;;;;13.38;8.48;;;;;;;10.43;91.22;94093.88;1591479;88;20998;-58
2022/09/14 00:08:41;;;;;;;13.28;8.38;;;;;;;10.44;91.35;94096.19;1615749;87;21214;-59
2022/09/14 00:11:12;;;;;;;9.53;6.97;;;;;;;10.47;91.07;94099.98;1626286;88;20971;-58
2022/09/14 00:13:43;;;;;;;12.30;6.70;;;;;;;10.50;90.95;94094.95;1622798;88;21114;-58
2022/09/14 00:16:17;;;;;;;11.40;7.83;;;;;;;10.52;90.59;94099.38;1632029;86;21113;-58
2022/09/14 00:18:44;;;;;;;9.50;8.15;;;;;;;10.48;90.45;94089.91;1626317;86;21081;-59
2022/09/14 00:21:11;;;;;;;14.78;10.03;;;;;;;10.43;90.16;94089.76;1629229;87;21174;-58
2022/09/14 00:23:39;;;;;;;10.72;7.50;;;;;;;10.41;90.66;94091.61;1621026;87;21015;-59
2022/09/14 00:26:15;;;;;;;11.00;7.95;;;;;;;10.44;90.83;94088.53;1619839;88;21039;-59
2022/09/14 00:28:46;;;;;;;11.18;7.72;;;;;;;10.50;90.84;94100.45;1600492;88;21476;-58
2022/09/14 00:31:12;;;;;;;8.50;6.47;;;;;;;10.50;90.49;94096.33;1635257;87;21014;-59
2022/09/14 00:33:41;;;;;;;10.90;6.75;;;;;;;10.53;90.66;94096.15;1603331;87;21307;-58
2022/09/14 00:36:11;;;;;;;8.98;5.62;;;;;;;10.53;90.10;94089.91;1630230;87;21157;-59
2022/09/14 00:38:39;;;;;;;7.00;6.20;;;;;;;10.52;90.18;94086.37;1650567;86;21014;-59
2022/09/14 00:41:09;;;;;;;8.70;6.17;;;;;;;10.54;89.92;94093.55;1648491;86;21535;-59
2022/09/14 00:43:58;;;;;;;7.83;6.22;;;;;;;10.54;89.61;94085.30;1673222;85;21006;-58
2022/09/14 00:46:28;;;;;;;8.03;6.00;;;;;;;10.53;89.34;94092.02;1656353;85;21243;-58
2022/09/14 00:48:56;;;;;;;8.95;6.20;;;;;;;10.42;89.30;94085.48;1658778;85;20972;-58
2022/09/14 00:51:23;;;;;;;10.05;6.20;;;;;;;10.39;89.74;94085.04;1672833;85;21098;-59
2022/09/14 00:53:50;;;;;;;11.03;6.55;;;;;;;10.42;89.83;94085.48;1666601;85;20983;-59
2022/09/14 00:56:16;;;;;;;8.05;5.35;;;;;;;10.45;89.85;94083.95;1680919;85;21046;-57
2022/09/14 00:58:45;;;;;;;7.50;6.08;;;;;;;10.49;89.68;94079.68;1665839;85;21243;-58
2022/09/14 01:01:12;;;;;;;6.20;5.55;;;;;;;10.50;89.31;94082.58;1663168;85;21407;-57
2022/09/14 01:03:39;;;;;;;7.97;5.62;;;;;;;10.50;89.05;94082.58;1651986;85;21426;-58
2022/09/14 01:06:23;;;;;;;6.62;5.67;;;;;;;10.45;88.60;94075.70;1659727;85;21487;-59
2022/09/14 01:09:08;;;;;;;7.53;5.62;;;;;;;10.40;88.45;94081.06;1671024;85;21070;-57
2022/09/14 01:11:52;;;;;;;7.17;5.30;;;;;;;10.34;88.41;94078.80;1672448;85;21173;-58
2022/09/14 01:15:00;;;;;;;6.33;5.60;;;;;;;10.26;88.75;94081.69;1653769;85;21073;-58
2022/09/14 01:17:42;;;;;;;7.30;5.60;;;;;;;10.20;88.70;94070.55;1672167;85;21118;-59
2022/09/14 01:20:29;;;;;;;7.28;5.25;;;;;;;10.12;89.14;94069.35;1674167;85;21566;-58
2022/09/14 01:23:15;;;;;;;8.80;4.78;;;;;;;10.11;89.25;94076.07;1676824;85;20971;-58
2022/09/14 01:26:08;;;;;;;10.70;5.50;;;;;;;10.09;89.27;94079.89;1680966;85;21264;-58
2022/09/14 01:29:13;;;;;;;10.82;5.08;;;;;;;10.06;89.50;94072.58;1644001;85;21022;-59
2022/09/14 01:31:54;;;;;;;6.53;4.62;;;;;;;10.04;89.27;94078.37;1613935;87;21472;-57
2022/09/14 01:34:57;;;;;;;5.92;5.30;;;;;;;9.96;89.05;94064.77;1676676;85;20987;-58
2022/09/14 01:37:33;;;;;;;9.55;5.55;;;;;;;9.89;89.06;94063.69;1680720;85;21119;-58
2022/09/14 01:40:20;;;;;;;5.80;5.05;;;;;;;9.78;89.55;94064.78;1668369;85;21291;-58
2022/09/14 01:42:53;;;;;;;6.90;5.37;;;;;;;9.68;89.46;94066.77;1653786;85;21022;-57
2022/09/14 01:45:20;;;;;;;5.67;5.05;;;;;;;9.61;89.82;94063.55;1669972;85;21018;-57
2022/09/14 01:47:55;;;;;;;6.53;5.67;;;;;;;9.56;89.88;94069.63;1655978;85;20990;-57
2022/09/14 01:50:40;;;;;;;5.62;5.15;;;;;;;9.51;90.22;94053.77;1652626;85;21113;-58
2022/09/14 01:53:34;;;;;;;9.53;5.10;;;;;;;9.45;90.22;94058.34;1655417;85;21188;-57
2022/09/14 01:56:05;;;;;;;6.53;5.40;;;;;;;9.38;90.31;94060.00;1655799;85;21387;-59
2022/09/14 01:58:46;;;;;;;6.92;4.90;;;;;;;9.36;90.83;94045.97;1664434;85;21232;-59
2022/09/14 02:01:19;;;;;;;5.58;4.87;;;;;;;9.32;91.36;94046.73;1663926;85;21022;-58
2022/09/14 02:03:51;;;;;;;5.92;5.35;;;;;;;9.35;91.57;94048.56;1647515;85;21077;-59
2022/09/14 02:06:38;;;;;;;8.13;6.30;;;;;;;9.35;91.61;94047.19;1670406;85;21518;-58
2022/09/14 02:09:06;;;;;;;8.45;5.47;;;;;;;9.31;91.58;94040.50;1677997;85;21070;-58
2022/09/14 02:11:34;;;;;;;6.58;5.87;;;;;;;9.19;91.62;94036.49;1660536;85;21100;-57
2022/09/14 02:14:01;;;;;;;7.42;5.60;;;;;;;9.08;91.83;94041.67;1669787;85;21423;-58
2022/09/14 02:16:28;;;;;;;6.50;4.75;;;;;;;9.00;91.89;94044.53;1663685;85;20970;-58
2022/09/14 02:18:57;;;;;;;6.50;5.17;;;;;;;8.94;92.16;94034.79;1605011;88;21514;-58
2022/09/14 02:21:30;;;;;;;5.60;5.10;;;;;;;8.92;92.45;94044.67;1669628;85;21066;-57
2022/09/14 02:23:58;;;;;;;;;;;;;;;8.92;92.79;94036.45;1664541;85;21015;-57
2022/09/14 02:26:24;;;;;;;6.25;5.17;;;;;;;8.94;92.89;94042.24;1678123;84;20434;-58
2022/09/14 02:28:55;;;;;;;5.90;4.70;;;;;;;8.96;92.91;94043.92;1660016;85;21527;-58
2022/09/14 02:31:38;;;;;;;7.20;5.40;;;;;;;9.01;93.18;94045.47;1654335;85;22044;-58
2022/09/14 02:35:03;;;;;;;11.00;5.95;;;;;;;9.04;92.98;94046.55;1675570;85;20974;-56
2022/09/14 02:37:35;;;;;;;8.75;5.60;;;;;;;9.05;93.06;94059.05;1613368;87;21007;-58
2022/09/14 02:40:11;;;;;;;7.47;4.72;;;;;;;9.09;93.14;94052.80;1570690;90;21180;-58
2022/09/14 02:43:06;;;;;;;13.75;5.47;;;;;;;9.13;92.66;94050.67;1595063;87;20985;-57
2022/09/14 02:45:54;;;;;;;11.70;5.95;;;;;;;9.13;92.36;94048.70;1606027;87;21216;-57
2022/09/14 02:49:00;;;;;;;6.30;5.58;;;;;;;9.09;92.11;94048.69;1617632;88;21082;-59
2022/09/14 02:51:38;;;;;;;18.65;5.50;;;;;;;9.03;91.91;94039.53;1623104;88;21027;-58
2022/09/14 02:54:13;;;;;;;10.60;5.47;;;;;;;8.99;91.99;94048.50;1608178;87;21030;-58
2022/09/14 02:56:39;;;;;;;11.70;5.65;;;;;;;8.91;92.07;94045.89;1615708;87;21045;-57
2022/09/14 02:59:06;;;;;;;9.30;5.83;;;;;;;8.85;92.31;94042.23;1642315;87;21253;-56
2022/09/14 03:01:33;;;;;;;7.72;6.30;;;;;;;8.83;92.68;94045.26;1634064;86;21009;-58
2022/09/14 03:04:00;;;;;;;13.55;6.40;;;;;;;8.75;92.76;94042.03;1631528;86;20988;-58
2022/09/14 03:06:27;;;;;;;9.15;5.15;;;;;;;8.71;92.88;94033.19;1632685;86;21014;-59
2022/09/14 03:08:53;;;;;;;12.07;5.87;;;;;;;8.68;92.86;94029.20;1636036;86;21074;-58
2022/09/14 03:11:20;;;;;;;6.33;5.30;;;;;;;8.63;93.33;94030.55;1605140;87;21335;-58
2022/09/14 03:13:47;;;;;;;7.25;6.55;;;;;;;8.65;93.55;94027.38;1666706;85;21092;-58
2022/09/14 03:16:16;;;;;;;14.00;6.80;;;;;;;8.60;93.85;94021.87;1647949;85;21062;-57
2022/09/14 03:18:43;;;;;;;9.18;6.28;;;;;;;8.59;93.67;94030.56;1657482;85;21529;-58
2022/09/14 03:21:14;;;;;;;8.90;6.70;;;;;;;8.57;93.68;94041.19;1670446;84;21730;-57
2022/09/14 03:23:50;;;;;;;9.05;6.30;;;;;;;8.55;93.64;94033.44;1653252;85;21252;-59
2022/09/14 03:26:19;;;;;;;10.03;6.67;;;;;;;8.56;93.87;94031.44;1601185;87;20991;-56
2022/09/14 03:28:52;;;;;;;9.48;6.45;;;;;;;8.53;93.45;94027.64;1606032;87;21143;-59
2022/09/14 03:31:19;;;;;;;14.13;6.78;;;;;;;8.53;93.79;94028.23;1609710;87;21082;-59
2022/09/14 03:33:47;;;;;;;11.90;6.05;;;;;;;8.49;93.44;94027.02;1604005;88;21097;-58
2022/09/14 03:36:18;;;;;;;13.48;6.53;;;;;;;8.46;93.46;94032.01;1569302;88;22065;-57
2022/09/14 03:38:46;;;;;;;8.30;6.65;;;;;;;8.45;93.76;94044.19;1603652;87;21046;-57
2022/09/14 03:41:13;;;;;;;13.83;6.53;;;;;;;8.48;93.93;94027.45;1606056;88;21090;-57
2022/09/14 03:43:41;;;;;;;11.30;6.65;;;;;;;8.43;93.60;94030.17;1669286;85;21073;-57
2022/09/14 03:46:14;;;;;;;11.57;6.42;;;;;;;8.40;93.86;94042.04;1666090;85;20974;-57
2022/09/14 03:48:41;;;;;;;14.28;7.33;;;;;;;8.35;93.47;94044.00;1656624;85;21183;-58
2022/09/14 03:51:10;;;;;;;11.88;6.58;;;;;;;8.30;93.76;94044.59;1656151;85;21504;-58
2022/09/14 03:53:37;;;;;;;17.82;6.78;;;;;;;8.32;93.78;94038.06;1674875;85;21070;-57
2022/09/14 03:56:13;;;;;;;11.35;6.40;;;;;;;8.29;93.69;94036.19;1668114;85;21145;-57
2022/09/14 03:58:41;;;;;;;10.55;6.50;;;;;;;8.29;94.07;94035.44;1669744;85;20970;-59
2022/09/14 04:01:13;;;;;;;13.10;6.33;;;;;;;8.33;94.04;94036.06;1675493;85;21172;-57
2022/09/14 04:03:40;;;;;;;12.43;6.20;;;;;;;8.38;94.29;94029.40;1618712;87;21517;-59
2022/09/14 04:06:08;;;;;;;15.15;6.87;;;;;;;8.50;94.50;94029.92;1637676;86;21033;-58
2022/09/14 04:08:36;;;;;;;14.15;8.03;;;;;;;8.60;94.17;94039.69;1643803;86;21049;-57
2022/09/14 04:11:10;;;;;;;17.27;9.35;;;;;;;8.69;94.20;94042.48;1677593;85;20951;-57
2022/09/14 04:13:37;;;;;;;14.55;7.58;;;;;;;8.74;93.32;94037.77;1656857;85;22320;-56
2022/09/14 04:16:04;;;;;;;8.08;6.22;;;;;;;8.69;92.44;94041.11;1671781;85;21363;-58
2022/09/14 04:18:31;;;;;;;13.00;7.33;;;;;;;8.54;92.03;94048.95;1647366;85;21629;-59
2022/09/14 04:21:03;;;;;;;13.55;7.90;;;;;;;8.40;92.28;94035.19;1673041;85;21119;-58
2022/09/14 04:23:30;;;;;;;10.78;9.03;;;;;;;8.30;92.58;94043.23;1671200;85;20967;-59
2022/09/14 04:25:57;;;;;;;20.48;10.03;;;;;;;8.27;92.98;94035.88;1681602;85;21250;-62
2022/09/14 04:28:24;;;;;;;17.30;9.60;;;;;;;8.26;93.33;94039.83;1666761;85;21585;-57
2022/09/14 04:30:58;;;;;;;9.18;7.60;;;;;;;8.30;93.63;94036.97;1656591;85;21735;-56
2022/09/14 04:33:27;;;;;;;16.87;8.00;;;;;;;8.36;93.66;94034.57;1672191;85;21574;-57
2022/09/14 04:36:02;;;;;;;13.62;7.05;;;;;;;8.44;93.87;94036.44;1670438;85;21054;-56
2022/09/14 04:38:30;;;;;;;15.20;7.67;;;;;;;8.55;94.30;94026.58;1667177;85;21232;-58
2022/09/14 04:40:56;;;;;;;10.85;7.85;;;;;;;8.71;94.46;94034.56;1664091;85;21017;-57
2022/09/14 04:43:24;;;;;;;15.58;10.58;;;;;;;8.81;93.45;94036.72;1672451;85;20982;-57
2022/09/14 04:45:52;;;;;;;11.90;8.40;;;;;;;8.79;92.79;94038.53;1661728;84;21489;-52
2022/09/14 04:48:19;;;;;;;8.53;7.58;;;;;;;8.80;92.78;94040.69;1668134;85;20974;-53
2022/09/14 04:50:46;;;;;;;16.27;7.97;;;;;;;8.87;93.16;94038.42;1658388;85;21343;-57
2022/09/14 04:53:12;;;;;;;8.05;7.25;;;;;;;8.96;92.98;94034.32;1670893;85;21134;-57
2022/09/14 04:55:39;;;;;;;8.05;6.50;;;;;;;9.03;92.85;94029.94;1645970;85;21475;-58
2022/09/14 04:58:06;;;;;;;7.25;6.28;;;;;;;9.09;92.49;94029.48;1660948;85;21063;-56
2022/09/14 05:00:35;;;;;;;11.48;6.70;;;;;;;9.22;92.64;94030.86;1670942;85;20986;-57
2022/09/14 05:03:04;;;;;;;17.05;6.80;;;;;;;9.35;92.40;94033.47;1635860;86;21154;-58
2022/09/14 05:05:32;;;;;;;11.12;7.47;;;;;;;9.40;92.19;94024.65;1672785;85;21004;-59
2022/09/14 05:08:02;;;;;;;14.23;7.08;;;;;;;9.44;92.13;94034.23;1677231;85;21003;-58
2022/09/14 05:10:28;;;;;;;12.18;6.92;;;;;;;9.49;91.95;94020.52;1671295;85;21077;-58
2022/09/14 05:12:55;;;;;;;14.85;6.50;;;;;;;9.53;91.81;94025.25;1675020;85;21117;-57
2022/09/14 05:15:22;;;;;;;11.53;7.10;;;;;;;9.59;91.74;94022.06;1652084;85;21200;-59
2022/09/14 05:17:50;;;;;;;8.83;6.72;;;;;;;9.68;91.82;94026.16;1635951;86;21018;-59
2022/09/14 05:20:17;;;;;;;12.00;7.33;;;;;;;9.79;91.97;94023.73;1640520;86;21017;-59
2022/09/14 05:22:44;;;;;;;13.05;7.40;;;;;;;9.90;92.14;94014.39;1596263;88;21119;-59
2022/09/14 05:25:10;;;;;;;12.70;6.92;;;;;;;10.05;92.43;94020.22;1637630;85;21113;-58
2022/09/14 05:27:37;;;;;;;12.40;5.80;;;;;;;10.15;91.99;94014.83;1630116;86;21848;-59
2022/09/14 05:30:06;;;;;;;14.85;7.67;;;;;;;10.22;91.30;94019.25;1589681;88;21035;-60
2022/09/14 05:32:34;;;;;;;8.23;7.28;;;;;;;10.23;91.01;94022.92;1593511;87;21565;-60
2022/09/14 05:35:01;;;;;;;11.53;8.53;;;;;;;10.29;90.84;94013.41;1603570;87;21170;-63
2022/09/14 05:37:28;;;;;;;19.40;13.48;;;;;;;10.25;90.33;94014.20;1594532;88;21024;-59
2022/09/14 05:39:56;;;;;;;17.85;11.88;;;;;;;10.23;90.43;94011.93;1646990;85;21132;-58
2022/09/14 05:42:23;;;;;;;16.37;8.48;;;;;;;10.25;90.42;94011.45;1596662;88;21159;-63
2022/09/14 05:44:51;;;;;;;16.57;9.38;;;;;;;10.30;90.35;94008.06;1622584;86;21480;-60
2022/09/14 05:47:18;;;;;;;18.20;8.10;;;;;;;10.37;90.21;94003.00;1604104;87;21706;-57
2022/09/14 05:49:45;;;;;;;13.32;7.47;;;;;;;10.45;89.92;94008.34;1601035;87;21546;-64
2022/09/14 05:52:14;;;;;;;37.05;10.08;;;;;;;10.53;89.58;94007.40;1589989;87;21267;-59
2022/09/14 05:54:41;;;;;;;12.65;7.90;;;;;;;10.65;89.78;93999.54;1640416;85;21072;-62
2022/09/14 05:57:09;;;;;;;14.03;8.35;;;;;;;10.86;89.74;94001.44;1638860;85;21014;-64
2022/09/14 05:59:36;;;;;;;20.65;11.78;;;;;;;11.06;89.45;93998.88;1624873;85;22096;-61
2022/09/14 06:02:03;;;;;;;28.38;13.65;;;;;;;11.26;88.92;93992.77;1593297;87;21475;-57
2022/09/14 06:04:32;;;;;;;22.25;13.58;;;;;;;11.42;88.22;93989.00;1590048;87;22163;-58
2022/09/14 06:06:59;;;;;;;22.40;12.55;;;;;;;11.59;88.01;93987.97;1649806;85;21053;-59
2022/09/14 06:09:26;;;;;;;21.68;11.05;;;;;;;11.82;87.55;94001.70;1641952;85;21111;-63
2022/09/14 06:11:52;;;;;;;23.27;13.25;;;;;;;12.03;87.06;93997.83;1636119;85;21503;-61
2022/09/14 06:14:20;;;;;;;20.48;12.85;;;;;;;12.21;86.83;93997.66;1635884;85;21124;-60
2022/09/14 06:16:47;;;;;;;21.40;12.18;;;;;;;12.45;86.45;93994.17;1637985;85;21065;-60
2022/09/14 06:19:14;;;;;;;17.17;9.73;;;;;;;12.62;85.53;93989.08;1631915;84;21086;-63
2022/09/14 06:21:42;;;;;;;20.25;9.75;;;;;;;12.75;84.98;93980.48;1635678;85;21127;-57
2022/09/14 06:24:13;;;;;;;17.62;8.90;;;;;;;12.92;84.35;93983.64;1631020;85;21010;-64
2022/09/14 06:26:40;;;;;;;19.55;8.95;;;;;;;13.09;83.69;93982.52;1584831;87;21194;-61
2022/09/14 06:29:08;;;;;;;24.95;11.25;;;;;;;13.29;83.44;93982.53;1648218;85;21214;-62
2022/09/14 06:31:35;;;;;;;15.23;10.60;;;;;;;13.58;82.62;93982.38;1631888;85;21073;-61
2022/09/14 06:34:02;;;;;;;20.92;11.08;;;;;;;13.86;81.51;93980.71;1656379;85;21072;-63
2022/09/14 06:36:29;;;;;;;14.45;8.83;;;;;;;14.10;80.67;93980.59;1646353;85;21005;-58
2022/09/14 06:38:57;;;;;;;12.05;7.95;;;;;;;14.35;79.35;93984.64;1620731;86;21020;-59
2022/09/14 06:41:27;;;;;;;20.60;10.75;;;;;;;14.58;78.64;93980.95;1615716;86;21279;-59
2022/09/14 06:43:58;;;;;;;17.17;9.63;;;;;;;14.80;77.19;93976.95;1639620;85;21148;-60
2022/09/14 06:46:31;;;;;;;12.13;7.78;;;;;;;15.01;76.50;93980.39;1576324;88;21078;-63
2022/09/14 06:49:00;;;;;;;;;;;;;;;15.20;74.84;93988.44;1609295;87;21109;-61
2022/09/14 06:51:30;;;;;;;19.92;12.37;;;;;;;15.31;73.80;93982.98;1648286;85;20274;-61
2022/09/14 06:53:58;;;;;;;18.52;12.45;;;;;;;15.38;73.29;93980.50;1636866;84;21321;-60
2022/09/14 06:56:28;;;;;;;14.78;10.60;;;;;;;15.51;72.73;93983.59;1637842;85;21088;-60
2022/09/14 06:58:54;;;;;;;18.80;11.08;;;;;;;15.67;72.16;93973.83;1638302;85;21080;-62
2022/09/14 07:01:21;;;;;;;19.45;9.63;;;;;;;15.73;71.70;93972.59;1652705;85;21145;-61
2022/09/14 07:03:51;;;;;;;17.15;9.00;;;;;;;15.79;71.59;93972.01;1645067;84;21103;-61
2022/09/14 07:06:25;;;;;;;16.35;8.78;;;;;;;15.93;72.05;93982.77;1648330;85;21259;-59
2022/09/14 07:08:54;;;;;;;37.38;9.55;;;;;;;16.08;71.42;93980.55;1638337;85;21529;-68
2022/09/14 07:11:24;;;;;;;21.07;7.20;;;;;;;16.29;69.86;93982.59;1644053;85;22456;-67
2022/09/14 07:13:59;;;;;;;10.20;5.30;;;;;;;16.53;69.44;93964.23;1607920;85;21041;-60
2022/09/14 07:16:27;;;;;;;51.18;32.50;;;;;;;16.78;68.08;93965.25;1644459;85;21040;-63
2022/09/14 07:18:55;;;;;;;13.93;8.73;;;;;;;17.07;66.11;93970.30;1640222;85;21109;-61
2022/09/14 07:21:22;;;;;;;41.95;34.90;;;;;;;17.30;64.20;93963.42;1641495;85;21077;-61
2022/09/14 07:23:50;;;;;;;15.80;9.63;;;;;;;17.52;63.31;93960.61;1638546;85;21070;-60
2022/09/14 07:26:21;;;;;;;7.67;4.70;;;;;;;17.68;62.52;93959.80;1650525;85;21116;-60
2022/09/14 07:28:52;;;;;;;5.72;4.50;;;;;;;17.78;60.60;93965.18;1648044;84;21632;-60
2022/09/14 07:31:23;;;;;;;5.95;5.30;;;;;;;17.80;60.33;93956.45;1597367;86;21252;-59
2022/09/14 07:33:56;;;;;;;9.85;3.65;;;;;;;17.82;60.02;93957.34;1630448;85;21005;-62
2022/09/14 07:36:24;;;;;;;6.60;3.75;;;;;;;17.84;59.46;93960.38;1647242;85;21226;-59
2022/09/14 07:38:51;;;;;;;6.20;3.70;;;;;;;17.86;59.21;93966.17;1590769;88;21054;-62
2022/09/14 07:41:21;;;;;;;3.25;3.02;;;;;;;17.88;58.61;93963.02;1609142;87;21235;-61
2022/09/14 07:43:51;;;;;;;6.30;3.17;;;;;;;17.87;58.84;93973.25;1638733;85;21196;-59
2022/09/14 07:46:19;;;;;;;5.15;3.67;;;;;;;17.85;59.14;93965.41;1649907;85;21148;-61
2022/09/14 07:48:47;;;;;;;7.45;5.00;;;;;;;17.82;58.57;93962.91;1646120;85;21112;-60
2022/09/14 07:51:14;;;;;;;16.15;8.70;;;;;;;17.80;58.78;93953.67;1638441;85;21144;-60
2022/09/14 07:53:42;;;;;;;7.83;3.75;;;;;;;17.81;59.00;93962.79;1666665;84;20998;-61
2022/09/14 07:56:10;;;;;;;10.68;4.95;;;;;;;17.86;58.72;93965.53;1643668;85;21581;-64
2022/09/14 07:58:37;;;;;;;6.33;3.50;;;;;;;17.90;58.18;93964.64;1641361;84;21563;-60
2022/09/14 08:01:07;;;;;;;9.95;4.30;;;;;;;17.94;58.38;93974.87;1642628;84;21141;-59
2022/09/14 08:03:38;;;;;;;5.62;4.22;;;;;;;18.00;57.78;93963.72;1640029;85;21053;-65
2022/09/14 08:06:16;;;;;;;4.47;3.57;;;;;;;18.06;58.21;93953.30;1644000;85;21013;-62
2022/09/14 08:08:46;;;;;;;7.70;6.12;;;;;;;18.18;57.61;93949.94;1626610;86;22849;-66
2022/09/14 08:11:23;;;;;;;18.30;10.10;;;;;;;18.32;57.54;93954.45;1646378;85;21201;-59
2022/09/14 08:13:52;;;;;;;15.38;7.62;;;;;;;18.39;57.72;93969.20;1642621;85;21256;-58
2022/09/14 08:16:20;;;;;;;15.10;12.47;;;;;;;18.45;57.74;93966.50;1627610;86;22179;-59
2022/09/14 08:18:47;;;;;;;7.83;5.15;;;;;;;18.54;57.85;93968.22;1641915;85;22247;-60
2022/09/14 08:21:15;;;;;;;7.83;4.80;;;;;;;18.63;56.57;93964.48;1653362;85;22197;-61
2022/09/14 08:23:43;;;;;;;9.85;6.60;;;;;;;18.74;55.25;93959.45;1639921;84;21025;-61
2022/09/14 08:26:12;;;;;;;10.80;5.62;;;;;;;18.82;55.78;93955.59;1630784;85;21165;-60
2022/09/14 08:28:39;;;;;;;7.92;6.97;;;;;;;18.94;55.68;93950.05;1640903;85;21475;-57
2022/09/14 08:31:19;;;;;;;9.13;5.55;;;;;;;19.14;55.23;93953.02;1643588;84;21082;-58
2022/09/14 08:33:50;;;;;;;5.58;3.47;;;;;;;19.29;55.53;93958.38;1639421;85;21369;-60
2022/09/14 08:36:19;;;;;;;13.90;4.75;;;;;;;19.39;54.09;93952.55;1634843;85;21507;-61
2022/09/14 08:38:45;;;;;;;5.45;3.65;;;;;;;19.39;54.44;93953.20;1642062;85;21095;-60
2022/09/14 08:41:36;;;;;;;8.85;4.80;;;;;;;19.36;54.60;93950.81;1647158;85;21004;-60
2022/09/14 08:44:42;;;;;;;8.33;4.28;;;;;;;19.41;54.96;93942.28;1665827;84;21095;-64
2022/09/14 08:47:28;;;;;;;10.45;3.83;;;;;;;19.54;54.95;93948.72;1640661;85;21333;-59
2022/09/14 08:50:16;;;;;;;20.37;9.45;;;;;;;19.73;55.05;93956.49;1620890;86;21941;-63
2022/09/14 08:52:51;;;;;;;16.67;4.80;;;;;;;19.85;54.40;93938.97;1616925;86;21121;-61
2022/09/14 08:55:47;;;;;;;7.25;3.20;;;;;;;19.90;52.97;93939.56;1621891;86;21511;-61
2022/09/14 08:58:51;;;;;;;5.40;4.12;;;;;;;19.94;53.29;93946.99;1641882;85;21165;-62
2022/09/14 09:02:08;;;;;;;7.25;3.80;;;;;;;20.03;53.35;93952.22;1633614;85;21139;-61
2022/09/14 09:04:43;;;;;;;9.95;4.87;;;;;;;20.16;52.95;93946.10;1651768;84;21479;-61
2022/09/14 09:07:23;;;;;;;17.90;8.48;;;;;;;20.29;52.53;93942.73;1647345;84;21057;-61
2022/09/14 09:09:51;;;;;;;8.05;3.42;;;;;;;20.39;51.35;93941.71;1635753;84;21045;-59
2022/09/14 09:12:39;;;;;;;9.55;3.12;;;;;;;20.47;51.26;93952.38;1637293;85;21133;-61
2022/09/14 09:15:31;;;;;;;5.45;2.98;;;;;;;20.50;51.38;93945.09;1648675;85;21326;-60
2022/09/14 09:18:07;;;;;;;46.53;4.55;;;;;;;20.48;49.87;93960.88;1647570;84;21033;-63
2022/09/14 09:20:41;;;;;;;14.20;4.25;;;;;;;20.36;50.27;93946.97;1652587;84;21209;-62
2022/09/14 09:23:16;;;;;;;42.13;14.65;;;;;;;20.25;50.03;93974.42;1635816;85;21081;-62
2022/09/14 09:26:05;;;;;;;9.48;3.75;;;;;;;20.21;51.02;93960.62;1640747;84;22421;-59
2022/09/14 09:28:32;;;;;;;11.15;5.60;;;;;;;20.16;50.25;93963.60;1637215;84;21343;-60
2022/09/14 09:31:03;;;;;;;20.77;5.00;;;;;;;20.12;50.61;93958.85;1643984;84;21049;-61
2022/09/14 09:33:32;;;;;;;11.45;7.30;;;;;;;20.13;50.55;93954.77;1631006;85;21980;-63
2022/09/14 09:36:08;;;;;;;7.12;3.80;;;;;;;20.15;50.26;93972.49;1641802;84;20990;-62
2022/09/14 09:38:35;;;;;;;12.35;3.47;;;;;;;20.16;50.66;93967.05;1658815;84;21057;-62
2022/09/14 09:41:22;;;;;;;4.92;3.37;;;;;;;20.18;51.14;93963.09;1644761;84;21216;-57
2022/09/14 09:44:09;;;;;;;6.70;2.50;;;;;;;20.27;50.55;93972.47;1655187;85;21482;-61
2022/09/14 09:46:48;;;;;;;6.10;3.90;;;;;;;20.36;50.28;93971.45;1671883;84;21651;-62
2022/09/14 09:49:36;;;;;;;9.23;2.65;;;;;;;20.50;50.07;93971.64;1658125;84;21223;-59
2022/09/14 09:52:09;;;;;;;6.33;3.02;;;;;;;20.73;49.50;93969.28;1640492;85;21590;-60
2022/09/14 09:54:37;;;;;;;8.00;3.08;;;;;;;21.02;49.36;93969.09;1642600;85;21274;-60
2022/09/14 09:57:08;;;;;;;6.62;3.20;;;;;;;21.32;47.59;93974.45;1642613;84;21700;-63
2022/09/14 09:59:39;;;;;;;8.55;6.42;;;;;;;21.63;47.03;93974.41;1645790;85;21908;-56
2022/09/14 10:02:31;;;;;;;3.40;2.77;;;;;;;21.97;46.27;93978.09;1655340;85;21061;-64
2022/09/14 10:05:07;;;;;;;7.87;3.00;;;;;;;22.29;45.84;93971.04;1645220;84;21083;-64
2022/09/14 10:07:57;;;;;;;7.95;3.98;;;;;;;22.68;45.06;93966.03;1661347;84;21265;-64
2022/09/14 10:10:41;;;;;;;8.45;3.12;;;;;;;22.69;43.96;93966.88;1661282;84;21045;-64
2022/09/14 10:13:29;;;;;;;7.70;2.90;;;;;;;22.66;44.59;93972.17;1641762;84;21021;-62
2022/09/14 10:16:16;;;;;;;5.05;2.65;;;;;;;22.76;45.15;93963.41;1639618;84;21084;-63
2022/09/14 10:18:48;;;;;;;8.93;2.27;;;;;;;22.99;44.34;93955.97;1662354;85;21144;-66
2022/09/14 10:21:18;;;;;;;10.25;4.20;;;;;;;23.21;43.27;93964.54;1659536;84;21273;-65
2022/09/14 10:23:45;;;;;;;8.05;2.95;;;;;;;23.28;43.35;93960.40;1638493;85;21498;-64
2022/09/14 10:26:17;;;;;;;5.50;2.20;;;;;;;23.30;43.13;93971.06;1642376;84;21116;-65
2022/09/14 10:28:48;;;;;;;;;;;;;;;23.13;42.94;93963.06;1655427;84;21114;-65
2022/09/14 10:31:27;;;;;;;6.22;2.70;;;;;;;22.81;44.24;93966.73;1618772;86;20193;-64
2022/09/14 10:33:55;;;;;;;15.35;2.15;;;;;;;22.64;44.79;93973.36;1626167;85;21289;-63
2022/09/14 10:36:32;;;;;;;6.00;2.52;;;;;;;22.62;44.08;93968.95;1628765;86;20942;-62
2022/09/14 10:39:25;;;;;;;5.03;2.20;;;;;;;22.64;44.48;93963.55;1639894;85;21568;-65
2022/09/14 10:42:10;;;;;;;2.62;2.25;;;;;;;22.77;43.90;93973.33;1635721;85;21109;-62
2022/09/14 10:44:48;;;;;;;7.83;3.10;;;;;;;23.07;43.87;93958.22;1632739;84;21573;-64
2022/09/14 10:47:30;;;;;;;10.98;2.40;;;;;;;23.19;43.59;93952.45;1641962;84;21172;-59
2022/09/14 10:50:52;;;;;;;7.20;2.00;;;;;;;22.98;43.26;93968.50;1645695;85;21114;-61
2022/09/14 10:53:46;;;;;;;8.93;2.47;;;;;;;22.57;44.25;93958.63;1643753;85;21023;-60
2022/09/14 10:56:20;;;;;;;6.35;2.10;;;;;;;22.10;45.44;93946.60;1642798;85;21209;-60
2022/09/14 10:59:21;;;;;;;12.68;2.52;;;;;;;21.99;45.73;93953.09;1641507;85;21190;-58
2022/09/14 11:02:23;;;;;;;7.40;2.20;;;;;;;21.97;46.14;93950.08;1642640;85;21133;-60
2022/09/14 11:05:31;;;;;;;7.78;2.85;;;;;;;22.06;45.60;93939.18;1642395;85;27077;-59
2022/09/14 11:08:38;;;;;;;4.47;2.40;;;;;;;22.71;44.59;93933.45;1635986;84;21077;-61
2022/09/14 11:11:48;;;;;;;3.45;2.00;;;;;;;23.70;42.69;93933.76;1643884;85;21409;-61
2022/09/14 11:14:53;;;;;;;13.90;4.65;;;;;;;24.57;41.05;93931.91;1635363;85;21593;-59
2022/09/14 11:17:34;;;;;;;12.75;2.42;;;;;;;25.23;39.63;93924.84;1637385;85;21296;-62
2022/09/14 11:20:25;;;;;;;4.40;2.20;;;;;;;25.90;38.26;93924.09;1638119;85;21137;-59
2022/09/14 11:23:24;;;;;;;6.22;2.22;;;;;;;26.41;37.60;93921.79;1632682;85;21233;-61
2022/09/14 11:26:17;;;;;;;7.58;1.85;;;;;;;26.85;36.32;93926.41;1644767;85;21042;-61
2022/09/14 11:28:55;;;;;;;5.33;2.08;;;;;;;27.14;36.13;93909.98;1633100;85;21117;-61
2022/09/14 11:31:56;;;;;;;4.85;2.47;;;;;;;27.55;35.56;93913.52;1633831;85;22249;-62
2022/09/14 11:34:31;;;;;;;7.33;2.20;;;;;;;27.77;34.60;93916.83;1634240;84;21199;-59
2022/09/14 11:37:08;;;;;;;5.70;1.82;;;;;;;27.89;34.54;93912.20;1652209;85;21086;-61
2022/09/14 11:39:48;;;;;;;9.63;2.02;;;;;;;27.92;34.14;93901.14;1640836;85;22090;-59
2022/09/14 11:42:21;;;;;;;5.75;1.70;;;;;;;27.89;34.74;93895.97;1648746;85;21084;-57
2022/09/14 11:44:56;;;;;;;14.15;6.03;;;;;;;28.05;34.60;93895.17;1638853;85;21183;-62
2022/09/14 11:47:25;;;;;;;12.65;2.00;;;;;;;28.25;34.20;93900.39;1642322;85;21158;-60
2022/09/14 11:50:18;;;;;;;7.83;1.82;;;;;;;28.33;33.25;93915.91;1648538;84;21227;-64
2022/09/14 11:52:50;;;;;;;13.43;2.10;;;;;;;28.16;33.36;93913.05;1640021;85;21027;-59
2022/09/14 11:55:23;;;;;;;10.18;1.90;;;;;;;27.93;33.57;93908.30;1628179;85;21058;-58
2022/09/14 11:57:50;;;;;;;5.12;1.87;;;;;;;27.60;33.85;93912.52;1632954;86;21116;-59
2022/09/14 12:00:45;;;;;;;9.68;2.87;;;;;;;27.38;34.65;93900.75;1643894;84;21080;-60
2022/09/14 12:03:21;;;;;;;13.45;1.80;;;;;;;27.60;35.11;93899.80;1638937;86;21155;-61
2022/09/14 12:05:49;;;;;;;12.93;2.33;;;;;;;28.09;34.82;93903.98;1643113;85;21210;-59